Time;durP1;ratioP1;P1;durP2;ratioP2;P2;SDS_P1;SDS_P2;PMS_P1;PMS_P2;Temp;Humidity;BMP_temperature;BMP_pressure;BME280_temperature;BME280_humidity;BME280_pressure;Samples;Min_cycle;Max_cycle;Signal;HPM_P1;HPM_P2
2022/07/26 00:00:33;;;;;;;7.00;2.57;;;20.80;99.90;;;;;;5011928;28;21097;-72
2022/07/26 00:02:59;;;;;;;6.97;2.40;;;20.80;99.90;;;;;;5011982;28;20462;-72
2022/07/26 00:05:28;;;;;;;9.47;2.60;;;20.70;99.90;;;;;;5020216;28;20562;-72
2022/07/26 00:08:09;;;;;;;12.00;2.23;;;20.70;99.90;;;;;;5015698;28;20553;-72
2022/07/26 00:10:36;;;;;;;5.17;2.50;;;20.70;99.90;;;;;;5025973;28;20464;-72
2022/07/26 00:13:03;;;;;;;5.43;2.67;;;20.70;99.90;;;;;;5021761;28;20873;-72
2022/07/26 00:15:30;;;;;;;6.47;2.40;;;20.60;99.90;;;;;;5021161;28;20968;-72
2022/07/26 00:17:56;;;;;;;8.23;2.73;;;20.60;99.90;;;;;;5015661;28;20482;-72
2022/07/26 00:20:23;;;;;;;7.37;2.87;;;20.60;99.90;;;;;;5025305;28;20454;-72
2022/07/26 00:22:51;;;;;;;8.47;2.63;;;20.50;99.90;;;;;;5025319;28;20446;-72
2022/07/26 00:25:18;;;;;;;7.77;2.60;;;20.50;99.90;;;;;;5013091;28;21038;-72
2022/07/26 00:27:44;;;;;;;4.40;2.20;;;20.50;99.90;;;;;;5018751;28;20881;-72
2022/07/26 00:30:13;;;;;;;5.63;2.40;;;20.50;99.90;;;;;;5015974;28;20465;-72
2022/07/26 00:32:40;;;;;;;3.50;2.37;;;20.50;99.90;;;;;;5022980;28;20481;-72
2022/07/26 00:35:07;;;;;;;9.60;2.97;;;20.50;99.90;;;;;;5028803;28;20445;-72
2022/07/26 00:37:34;;;;;;;11.33;2.53;;;20.50;99.90;;;;;;5023764;28;20544;-72
2022/07/26 00:40:03;;;;;;;12.03;2.80;;;20.40;99.90;;;;;;5020669;28;20454;-72
2022/07/26 00:42:30;;;;;;;9.47;2.63;;;20.40;99.90;;;;;;5023038;28;20457;-72
2022/07/26 00:44:57;;;;;;;11.10;2.60;;;20.30;99.90;;;;;;5023558;28;20476;-72
2022/07/26 00:47:24;;;;;;;4.30;2.37;;;20.30;99.90;;;;;;5026855;28;20499;-72
2022/07/26 00:49:50;;;;;;;15.90;2.53;;;20.30;99.90;;;;;;5015178;28;20508;-72
2022/07/26 00:52:17;;;;;;;10.60;3.00;;;20.30;99.90;;;;;;5026308;28;20466;-72
2022/07/26 00:54:45;;;;;;;6.10;3.40;;;20.20;99.90;;;;;;5028275;28;20450;-72
2022/07/26 00:57:14;;;;;;;13.83;2.70;;;20.10;99.90;;;;;;5018183;28;20480;-72
2022/07/26 00:59:41;;;;;;;6.30;2.50;;;20.20;99.90;;;;;;5019950;28;20464;-72
2022/07/26 01:02:09;;;;;;;5.33;2.03;;;20.10;99.90;;;;;;5014944;28;20946;-72
2022/07/26 01:04:36;;;;;;;7.67;2.27;;;20.10;99.90;;;;;;5031938;28;20515;-72
2022/07/26 01:07:03;;;;;;;11.27;3.00;;;20.10;99.90;;;;;;5032567;28;20475;-72
2022/07/26 01:09:30;;;;;;;8.87;2.60;;;20.10;99.90;;;;;;5024176;28;20524;-72
2022/07/26 01:11:58;;;;;;;5.97;2.20;;;20.10;99.90;;;;;;5017410;28;20458;-72
2022/07/26 01:14:26;;;;;;;9.10;2.53;;;20.20;99.90;;;;;;5023669;28;20492;-72
2022/07/26 01:16:53;;;;;;;6.90;2.47;;;20.20;99.90;;;;;;5027261;28;20465;-72
2022/07/26 01:19:20;;;;;;;5.60;2.50;;;20.20;99.90;;;;;;5023806;28;20445;-72
2022/07/26 01:21:48;;;;;;;5.03;2.17;;;20.20;99.90;;;;;;5014736;28;20462;-72
2022/07/26 01:24:15;;;;;;;6.20;2.13;;;20.20;99.90;;;;;;5023413;28;20445;-72
2022/07/26 01:26:42;;;;;;;6.67;2.20;;;20.20;99.90;;;;;;5021514;28;20536;-72
2022/07/26 01:29:08;;;;;;;6.80;2.00;;;20.20;99.90;;;;;;5027762;28;20455;-72
2022/07/26 01:31:35;;;;;;;10.67;2.47;;;20.30;99.90;;;;;;5015073;28;20879;-72
2022/07/26 01:34:02;;;;;;;2.23;1.90;;;20.30;99.90;;;;;;5015177;28;20425;-72
2022/07/26 01:36:29;;;;;;;6.37;2.17;;;20.30;99.90;;;;;;5020902;28;20997;-72
2022/07/26 01:38:57;;;;;;;2.60;1.93;;;20.30;99.90;;;;;;5026364;28;20449;-72
2022/07/26 01:41:23;;;;;;;4.37;2.30;;;20.30;99.90;;;;;;5028274;28;20445;-72
2022/07/26 01:43:50;;;;;;;4.80;2.10;;;20.30;99.90;;;;;;5019861;28;20449;-72
2022/07/26 01:46:17;;;;;;;4.80;2.00;;;20.30;99.90;;;;;;5019075;28;20867;-72
2022/07/26 01:48:43;;;;;;;11.67;2.40;;;20.30;99.90;;;;;;5018258;28;20446;-73
2022/07/26 01:51:10;;;;;;;3.20;2.00;;;20.30;99.90;;;;;;5021157;28;20470;-72
2022/07/26 01:53:37;;;;;;;10.23;1.90;;;20.30;99.90;;;;;;5023376;28;20517;-72
2022/07/26 01:56:05;;;;;;;2.27;1.80;;;20.30;99.90;;;;;;5025279;28;20457;-72
2022/07/26 01:58:32;;;;;;;5.63;2.37;;;20.30;99.90;;;;;;5020665;28;20958;-72
2022/07/26 02:00:58;;;;;;;6.83;2.17;;;20.30;99.90;;;;;;5024514;28;20928;-72
2022/07/26 02:03:25;;;;;;;4.30;1.67;;;20.20;99.90;;;;;;5027287;28;20496;-72
2022/07/26 02:05:52;;;;;;;5.93;1.90;;;20.20;99.90;;;;;;5027575;28;20482;-72
2022/07/26 02:08:18;;;;;;;5.30;2.43;;;20.20;99.90;;;;;;5024205;28;20469;-72
2022/07/26 02:11:00;;;;;;;4.13;2.00;;;20.10;99.90;;;;;;5015650;28;20458;-72
2022/07/26 02:13:29;;;;;;;6.83;2.47;;;20.10;99.90;;;;;;5016779;28;20921;-72
2022/07/26 02:15:57;;;;;;;7.90;1.90;;;20.10;99.90;;;;;;5013422;28;20446;-72
2022/07/26 02:18:24;;;;;;;5.20;1.80;;;20.00;99.90;;;;;;5017187;28;20466;-72
2022/07/26 02:20:51;;;;;;;7.60;2.30;;;19.90;99.90;;;;;;5020667;28;20520;-72
2022/07/26 02:23:18;;;;;;;11.50;2.00;;;19.90;99.90;;;;;;5015727;28;21274;-72
2022/07/26 02:25:45;;;;;;;2.27;1.80;;;19.90;99.90;;;;;;5016766;28;20513;-72
2022/07/26 02:28:11;;;;;;;3.50;2.20;;;19.80;99.90;;;;;;5026711;28;20483;-72
2022/07/26 02:30:39;;;;;;;10.33;2.00;;;19.90;99.90;;;;;;5024001;28;20495;-72
2022/07/26 02:33:06;;;;;;;3.73;1.70;;;19.90;99.90;;;;;;5013101;28;20469;-72
2022/07/26 02:35:33;;;;;;;5.30;2.50;;;19.80;99.90;;;;;;5018331;28;20457;-72
2022/07/26 02:38:02;;;;;;;7.23;2.07;;;19.80;99.90;;;;;;5016591;28;20476;-72
2022/07/26 02:40:29;;;;;;;4.97;2.17;;;19.80;99.90;;;;;;5023108;28;20450;-72
2022/07/26 02:42:56;;;;;;;4.10;2.23;;;19.80;99.90;;;;;;5021773;28;20455;-72
2022/07/26 02:45:23;;;;;;;9.93;2.37;;;19.70;99.90;;;;;;5019564;28;21257;-73
2022/07/26 02:47:52;;;;;;;5.70;2.20;;;19.60;99.90;;;;;;5024133;28;20889;-72
2022/07/26 02:50:21;;;;;;;3.73;2.23;;;19.50;99.90;;;;;;5022512;28;20424;-72
2022/07/26 02:52:48;;;;;;;3.57;1.87;;;19.50;99.90;;;;;;5022352;28;20437;-72
2022/07/26 02:55:15;;;;;;;8.47;2.40;;;19.50;99.90;;;;;;5019057;28;20840;-72
2022/07/26 02:57:41;;;;;;;6.70;2.30;;;19.40;99.90;;;;;;5022645;28;20448;-72
2022/07/26 03:00:11;;;;;;;10.33;2.10;;;19.40;99.90;;;;;;5027771;28;20431;-72
2022/07/26 03:02:37;;;;;;;4.77;1.90;;;19.30;99.90;;;;;;5025898;28;20446;-73
2022/07/26 03:05:07;;;;;;;5.13;2.10;;;19.30;99.90;;;;;;5013902;28;20508;-72
2022/07/26 03:07:34;;;;;;;3.60;1.90;;;19.20;99.90;;;;;;5022728;28;20475;-72
2022/07/26 03:10:00;;;;;;;2.40;2.10;;;19.20;99.90;;;;;;5021022;28;20433;-72
2022/07/26 03:12:27;;;;;;;4.90;2.20;;;19.10;99.90;;;;;;5016752;28;20453;-72
2022/07/26 03:14:54;;;;;;;6.00;1.80;;;19.10;99.90;;;;;;5026873;28;20439;-72
2022/07/26 03:17:20;;;;;;;6.27;1.83;;;19.10;99.90;;;;;;5023394;28;20520;-72
2022/07/26 03:19:47;;;;;;;6.40;2.00;;;18.90;99.90;;;;;;5027479;28;20465;-72
2022/07/26 03:22:15;;;;;;;7.47;2.00;;;19.00;99.90;;;;;;5012461;28;21013;-72
2022/07/26 03:24:42;;;;;;;5.33;1.80;;;19.00;99.90;;;;;;5021474;28;20484;-72
2022/07/26 03:27:08;;;;;;;4.70;2.10;;;18.90;99.90;;;;;;5019028;28;20465;-73
2022/07/26 03:29:35;;;;;;;3.60;2.00;;;18.90;99.90;;;;;;5013553;28;20494;-72
2022/07/26 03:32:02;;;;;;;5.23;2.40;;;18.80;99.90;;;;;;5016374;28;20455;-72
2022/07/26 03:34:28;;;;;;;5.23;2.37;;;18.80;99.90;;;;;;5012177;28;20436;-72
2022/07/26 03:36:55;;;;;;;8.73;2.47;;;18.80;99.90;;;;;;5017013;28;20465;-72
2022/07/26 03:39:24;;;;;;;6.10;2.30;;;18.70;99.90;;;;;;5022060;28;20945;-72
2022/07/26 03:41:50;;;;;;;5.50;2.03;;;18.70;99.90;;;;;;5018642;28;20987;-72
2022/07/26 03:44:17;;;;;;;4.50;1.83;;;18.70;99.90;;;;;;5029666;28;20781;-72
2022/07/26 03:46:44;;;;;;;5.50;2.70;;;18.60;99.90;;;;;;5023965;28;20464;-72
2022/07/26 03:49:10;;;;;;;5.50;2.20;;;18.50;99.90;;;;;;5030010;28;20507;-72
2022/07/26 03:51:37;;;;;;;4.03;2.30;;;18.50;99.90;;;;;;5022147;28;21071;-72
2022/07/26 03:54:04;;;;;;;7.20;2.27;;;18.50;99.90;;;;;;5021628;28;20511;-73
2022/07/26 03:56:31;;;;;;;8.27;2.30;;;18.50;99.90;;;;;;5026886;28;20983;-72
2022/07/26 03:58:59;;;;;;;4.83;2.07;;;18.40;99.90;;;;;;5026669;28;20440;-72
2022/07/26 04:01:26;;;;;;;8.70;2.40;;;18.40;99.90;;;;;;5029931;28;20562;-72
2022/07/26 04:03:53;;;;;;;5.83;2.13;;;18.40;99.90;;;;;;5027008;28;20487;-75
2022/07/26 04:06:20;;;;;;;4.30;2.30;;;18.40;99.90;;;;;;5022280;28;20907;-75
2022/07/26 04:08:47;;;;;;;6.23;1.97;;;18.50;99.90;;;;;;5020638;28;20459;-75
2022/07/26 04:11:13;;;;;;;5.00;2.20;;;18.50;99.90;;;;;;5017272;28;20459;-75
2022/07/26 04:13:41;;;;;;;6.27;1.80;;;18.60;99.90;;;;;;5021466;28;20458;-75
2022/07/26 04:16:08;;;;;;;3.73;2.63;;;18.60;99.90;;;;;;5016369;28;20505;-75
2022/07/26 04:18:35;;;;;;;4.73;2.00;;;18.60;99.90;;;;;;5015091;28;20458;-75
2022/07/26 04:21:01;;;;;;;9.33;2.20;;;18.60;99.90;;;;;;5024876;28;20485;-75
2022/07/26 04:23:28;;;;;;;4.63;2.07;;;18.70;99.90;;;;;;5024391;28;20420;-75
2022/07/26 04:25:55;;;;;;;11.87;2.27;;;18.70;99.90;;;;;;5015437;28;20483;-75
2022/07/26 04:28:23;;;;;;;5.87;2.20;;;18.80;99.90;;;;;;5011422;28;21000;-76
2022/07/26 04:30:51;;;;;;;3.97;2.10;;;18.80;99.90;;;;;;5014805;28;20433;-75
2022/07/26 04:33:17;;;;;;;3.83;1.87;;;18.90;99.90;;;;;;5011678;28;20428;-75
2022/07/26 04:35:44;;;;;;;5.83;1.90;;;19.00;99.90;;;;;;5015525;28;20424;-75
2022/07/26 04:38:11;;;;;;;2.10;1.90;;;19.00;99.90;;;;;;5015176;28;20844;-74
2022/07/26 04:40:37;;;;;;;2.70;2.00;;;19.00;99.90;;;;;;5020507;28;20487;-75
2022/07/26 04:43:04;;;;;;;9.00;2.20;;;19.00;99.90;;;;;;5020254;28;20424;-75
2022/07/26 04:45:31;;;;;;;6.50;1.83;;;19.10;99.90;;;;;;5025832;28;20539;-75
2022/07/26 04:47:59;;;;;;;3.97;2.00;;;19.10;99.90;;;;;;5023016;28;20519;-75
2022/07/26 04:50:27;;;;;;;5.83;2.30;;;19.20;99.90;;;;;;5023119;28;20429;-75
2022/07/26 04:52:54;;;;;;;3.60;1.77;;;19.20;99.90;;;;;;5024493;28;20519;-75
2022/07/26 04:55:22;;;;;;;3.70;1.70;;;19.30;99.90;;;;;;5013404;28;20865;-74
2022/07/26 04:57:50;;;;;;;8.90;2.10;;;19.20;99.90;;;;;;5018221;28;20956;-75
2022/07/26 05:00:20;;;;;;;2.90;1.77;;;19.20;99.90;;;;;;5011402;28;20497;-72
2022/07/26 05:02:48;;;;;;;7.90;2.07;;;19.20;99.90;;;;;;5023368;28;20449;-72
2022/07/26 05:05:16;;;;;;;4.47;2.17;;;19.30;99.90;;;;;;5015521;28;20428;-72
2022/07/26 05:07:45;;;;;;;8.10;1.97;;;19.40;99.90;;;;;;5027060;28;20522;-72
2022/07/26 05:10:12;;;;;;;2.90;1.80;;;19.70;99.90;;;;;;5011883;28;21177;-73
2022/07/26 05:12:39;;;;;;;3.10;1.90;;;19.50;99.90;;;;;;5017014;28;20449;-73
2022/07/26 05:15:07;;;;;;;3.87;2.03;;;19.60;99.90;;;;;;5021667;28;20436;-73
2022/07/26 05:17:34;;;;;;;3.97;1.80;;;19.60;99.90;;;;;;5019792;28;20865;-73
2022/07/26 05:20:01;;;;;;;7.23;2.00;;;19.70;99.90;;;;;;5020398;28;20840;-75
2022/07/26 05:22:28;;;;;;;4.50;1.80;;;19.70;99.90;;;;;;5017764;28;20425;-73
2022/07/26 05:24:55;;;;;;;5.50;1.93;;;19.80;99.90;;;;;;5026045;28;20425;-72
2022/07/26 05:27:22;;;;;;;4.60;2.03;;;19.90;99.90;;;;;;5021722;28;20487;-72
2022/07/26 05:29:48;;;;;;;6.80;2.83;;;19.90;99.90;;;;;;5017514;28;20499;-74
2022/07/26 05:32:15;;;;;;;4.70;1.70;;;20.00;99.90;;;;;;5024773;28;20453;-73
2022/07/26 05:34:42;;;;;;;6.10;1.80;;;20.10;99.90;;;;;;5019148;28;20458;-73
2022/07/26 05:37:09;;;;;;;4.90;2.20;;;20.10;99.90;;;;;;5014155;28;20483;-72
2022/07/26 05:39:37;;;;;;;6.57;2.17;;;20.10;99.90;;;;;;5017648;28;20437;-73
2022/07/26 05:42:04;;;;;;;6.63;2.50;;;20.10;99.90;;;;;;5016830;28;20433;-73
2022/07/26 05:44:30;;;;;;;7.30;2.10;;;20.20;99.90;;;;;;5019026;28;20489;-73
2022/07/26 05:46:57;;;;;;;3.37;2.00;;;20.30;99.90;;;;;;5031625;28;20490;-73
2022/07/26 05:49:24;;;;;;;8.27;1.93;;;20.40;99.90;;;;;;5029266;28;20433;-74
2022/07/26 05:51:51;;;;;;;4.70;2.03;;;20.50;99.90;;;;;;5018165;28;20948;-74
2022/07/26 05:54:19;;;;;;;3.67;2.17;;;20.50;99.90;;;;;;5027214;28;20447;-73
2022/07/26 05:56:48;;;;;;;6.20;2.20;;;20.60;99.90;;;;;;5020887;28;20475;-73
2022/07/26 05:59:14;;;;;;;2.80;2.07;;;20.70;99.90;;;;;;5020776;28;20453;-74
2022/07/26 06:01:41;;;;;;;2.90;2.30;;;20.80;99.90;;;;;;5023247;28;20897;-72
2022/07/26 06:04:09;;;;;;;5.47;2.20;;;20.90;99.90;;;;;;5024557;28;20457;-73
2022/07/26 06:06:36;;;;;;;6.40;1.90;;;21.00;99.90;;;;;;5027985;28;20448;-73
2022/07/26 06:09:03;;;;;;;6.43;2.30;;;21.10;99.90;;;;;;5026671;28;20460;-73
2022/07/26 06:11:30;;;;;;;7.27;2.13;;;21.30;99.90;;;;;;5027325;28;20461;-73
2022/07/26 06:13:58;;;;;;;7.97;2.23;;;21.30;99.90;;;;;;5028565;28;20488;-74
2022/07/26 06:16:24;;;;;;;2.60;2.10;;;21.40;99.90;;;;;;5027781;28;20448;-74
2022/07/26 06:18:51;;;;;;;3.00;2.07;;;21.40;99.90;;;;;;5027732;28;20558;-73
2022/07/26 06:21:18;;;;;;;10.07;2.50;;;21.60;99.90;;;;;;5028338;28;20542;-73
2022/07/26 06:23:44;;;;;;;5.13;2.00;;;21.50;99.90;;;;;;5028172;28;20491;-72
2022/07/26 06:26:11;;;;;;;2.60;2.30;;;21.40;99.90;;;;;;5026652;28;20445;-73
2022/07/26 06:28:38;;;;;;;2.17;1.83;;;21.40;99.90;;;;;;5028112;28;20487;-73
2022/07/26 06:31:06;;;;;;;4.93;2.30;;;21.30;99.90;;;;;;5027543;28;20473;-74
2022/07/26 06:33:33;;;;;;;4.90;2.10;;;21.30;99.90;;;;;;5027558;28;20446;-74
2022/07/26 06:36:00;;;;;;;4.97;1.87;;;21.30;99.90;;;;;;5026283;28;20462;-74
2022/07/26 06:38:26;;;;;;;1.80;1.70;;;21.40;99.90;;;;;;5027024;28;20481;-74
2022/07/26 06:40:53;;;;;;;7.67;2.20;;;21.50;99.90;;;;;;5027324;28;20523;-74
2022/07/26 06:43:20;;;;;;;2.23;2.03;;;21.70;99.90;;;;;;5025734;28;20458;-74
2022/07/26 06:45:48;;;;;;;5.03;2.20;;;22.00;99.90;;;;;;5026122;28;20442;-74
2022/07/26 06:48:16;;;;;;;2.80;1.80;;;22.20;99.90;;;;;;5027196;28;20504;-74
2022/07/26 06:50:42;;;;;;;2.63;2.43;;;22.40;99.90;;;;;;5026916;28;20969;-75
2022/07/26 06:53:09;;;;;;;4.03;2.40;;;22.70;99.90;;;;;;5026426;28;20897;-74
2022/07/26 06:55:36;;;;;;;6.70;2.00;;;22.90;99.90;;;;;;5026776;28;20469;-74
2022/07/26 06:58:02;;;;;;;3.23;2.00;;;23.10;99.90;;;;;;5027579;28;20465;-74
2022/07/26 07:00:29;;;;;;;6.00;2.17;;;23.30;99.90;;;;;;5027892;28;20453;-74
2022/07/26 07:02:56;;;;;;;6.97;2.40;;;23.50;99.90;;;;;;5027398;28;20453;-74
2022/07/26 07:05:24;;;;;;;4.87;1.90;;;23.60;99.90;;;;;;5025546;28;20557;-74
2022/07/26 07:07:50;;;;;;;4.13;1.80;;;23.50;99.90;;;;;;5026126;28;20542;-74
2022/07/26 07:10:17;;;;;;;5.40;1.93;;;23.50;99.90;;;;;;5026486;28;20485;-74
2022/07/26 07:12:44;;;;;;;3.17;2.40;;;23.70;99.90;;;;;;5026125;28;20460;-75
2022/07/26 07:15:11;;;;;;;4.03;2.10;;;23.80;99.90;;;;;;5026864;28;20453;-75
2022/07/26 07:17:38;;;;;;;5.47;2.20;;;24.00;99.90;;;;;;4990500;28;20461;-75
2022/07/26 07:20:06;;;;;;;3.47;1.90;;;24.10;99.90;;;;;;5044660;28;20472;-74
2022/07/26 07:22:34;;;;;;;2.30;2.10;;;23.90;99.90;;;;;;5047441;28;20449;-75
2022/07/26 07:25:00;;;;;;;1.90;1.70;;;24.10;99.90;;;;;;5046701;28;20514;-75
2022/07/26 07:27:27;;;;;;;4.23;2.10;;;24.20;99.90;;;;;;5046169;28;20538;-74
2022/07/26 07:29:54;;;;;;;4.93;2.30;;;24.20;99.90;;;;;;5045601;28;20586;-75
2022/07/26 07:32:21;;;;;;;2.90;2.00;;;24.10;99.90;;;;;;4965293;28;20476;-73
2022/07/26 07:34:48;;;;;;;4.20;1.97;;;24.10;99.90;;;;;;5046087;28;20881;-73
2022/07/26 07:37:15;;;;;;;3.53;2.37;;;24.20;99.90;;;;;;5045678;28;20469;-73
2022/07/26 07:39:43;;;;;;;2.47;2.07;;;24.00;99.90;;;;;;5045703;28;20441;-74
2022/07/26 07:42:09;;;;;;;5.93;2.73;;;23.80;99.90;;;;;;5046365;28;20476;-73
2022/07/26 07:44:36;;;;;;;5.17;2.10;;;23.70;99.90;;;;;;5045491;28;22381;-73
2022/07/26 07:47:03;;;;;;;5.47;2.03;;;23.40;99.90;;;;;;5045619;28;20468;-73
2022/07/26 07:49:30;;;;;;;4.00;2.33;;;23.70;99.90;;;;;;5046564;28;20499;-73
2022/07/26 07:51:57;;;;;;;4.10;2.20;;;23.70;99.90;;;;;;5046532;28;20516;-74
2022/07/26 07:54:23;;;;;;;2.53;2.20;;;24.00;99.90;;;;;;5046057;28;20449;-74
2022/07/26 07:56:55;;;;;;;4.93;2.30;;;24.10;99.90;;;;;;5045722;28;20475;-73
2022/07/26 07:59:21;;;;;;;4.07;1.80;;;24.40;99.90;;;;;;5045921;28;20449;-74
2022/07/26 08:01:48;;;;;;;3.20;2.00;;;24.80;99.90;;;;;;5046149;28;20980;-75
2022/07/26 08:04:15;;;;;;;4.20;1.93;;;25.20;99.90;;;;;;5046383;28;20456;-76
2022/07/26 08:06:42;;;;;;;2.20;1.40;;;25.40;99.90;;;;;;5045129;28;20475;-75
2022/07/26 08:09:09;;;;;;;5.00;1.90;;;25.60;99.90;;;;;;5044939;28;20491;-76
2022/07/26 08:11:35;;;;;;;2.33;1.73;;;25.50;99.90;;;;;;5045415;28;20452;-76
2022/07/26 08:14:03;;;;;;;5.10;1.83;;;25.00;99.90;;;;;;5045871;28;20518;-76
2022/07/26 08:16:30;;;;;;;3.90;2.00;;;24.90;99.90;;;;;;5045903;28;20508;-75
2022/07/26 08:18:57;;;;;;;2.70;2.30;;;25.10;99.90;;;;;;5045782;28;20461;-76
2022/07/26 08:21:24;;;;;;;2.23;1.70;;;24.70;99.90;;;;;;5045910;28;20498;-76
2022/07/26 08:23:50;;;;;;;2.00;1.57;;;24.60;99.90;;;;;;5046859;28;20444;-76
2022/07/26 08:26:17;;;;;;;2.33;1.90;;;24.70;99.90;;;;;;5045549;28;20506;-76
2022/07/26 08:28:44;;;;;;;2.20;1.93;;;24.70;99.90;;;;;;5046211;28;21037;-75
2022/07/26 08:31:12;;;;;;;6.30;1.87;;;24.80;99.90;;;;;;5046370;28;20522;-76
2022/07/26 08:33:39;;;;;;;3.63;1.60;;;24.80;99.90;;;;;;5045424;28;20506;-76
2022/07/26 08:36:06;;;;;;;8.73;2.47;;;25.10;99.90;;;;;;5045527;28;20514;-76
2022/07/26 08:38:33;;;;;;;2.70;1.80;;;25.40;99.90;;;;;;5045788;28;20475;-76
2022/07/26 08:40:59;;;;;;;1.90;1.70;;;25.50;99.90;;;;;;5045043;28;20880;-75
2022/07/26 08:43:26;;;;;;;6.00;1.90;;;25.30;99.90;;;;;;5046599;28;20444;-76
2022/07/26 08:46:00;;;;;;;9.40;2.27;;;25.20;99.90;;;;;;5044608;28;20955;-75
2022/07/26 08:48:29;;;;;;;5.50;2.03;;;25.50;99.90;;;;;;5048569;28;20476;-76
2022/07/26 08:50:56;;;;;;;2.30;1.57;;;25.70;99.90;;;;;;5050073;28;20558;-75
2022/07/26 08:53:23;;;;;;;3.40;1.80;;;25.70;99.90;;;;;;5049111;28;20460;-75
2022/07/26 08:55:49;;;;;;;2.90;1.80;;;25.40;99.90;;;;;;5048915;28;20498;-75
2022/07/26 08:58:16;;;;;;;2.33;1.70;;;25.10;99.90;;;;;;5049015;28;20465;-73
2022/07/26 09:00:44;;;;;;;2.33;2.00;;;25.00;99.90;;;;;;5048937;28;20872;-74
2022/07/26 09:03:24;;;;;;;4.40;1.60;;;25.00;99.90;;;;;;5049268;28;20460;-75
2022/07/26 09:05:54;;;;;;;2.60;2.17;;;25.10;99.90;;;;;;5048806;28;20543;-75
2022/07/26 09:08:25;;;;;;;2.77;1.90;;;25.10;99.90;;;;;;5048401;28;20492;-75
2022/07/26 09:10:51;;;;;;;2.70;1.80;;;25.00;99.90;;;;;;5048466;28;20533;-75
2022/07/26 09:13:19;;;;;;;3.83;1.90;;;25.00;99.90;;;;;;5049148;28;20448;-75
2022/07/26 09:15:45;;;;;;;4.10;1.57;;;25.10;99.90;;;;;;5048792;28;20471;-73
2022/07/26 09:18:25;;;;;;;2.77;1.90;;;25.20;99.90;;;;;;5049018;28;20995;-74
2022/07/26 09:20:54;;;;;;;2.87;1.70;;;25.00;99.90;;;;;;5048302;28;20452;-75
2022/07/26 09:23:20;;;;;;;2.77;1.93;;;24.90;99.90;;;;;;5048600;28;20453;-74
2022/07/26 09:25:47;;;;;;;6.30;2.07;;;24.90;99.90;;;;;;5049130;28;20446;-75
2022/07/26 09:28:22;;;;;;;3.63;1.90;;;24.50;99.90;;;;;;5048259;28;20484;-74
2022/07/26 09:30:53;;;;;;;4.03;2.00;;;24.30;99.90;;;;;;5049017;28;20819;-74
2022/07/26 09:33:19;;;;;;;5.30;2.07;;;24.50;99.90;;;;;;5048444;28;20587;-74
2022/07/26 09:36:02;;;;;;;4.60;1.93;;;24.80;99.90;;;;;;5047991;28;20490;-75
2022/07/26 09:38:39;;;;;;;5.43;2.30;;;25.10;99.90;;;;;;5049138;28;20456;-75
2022/07/26 09:41:17;;;;;;;4.60;2.30;;;25.50;99.90;;;;;;5048535;28;20535;-75
2022/07/26 09:43:44;;;;;;;2.90;2.10;;;25.70;99.90;;;;;;5048457;28;20453;-75
2022/07/26 09:46:11;;;;;;;3.20;2.00;;;25.90;99.90;;;;;;5048263;28;20940;-75
2022/07/26 09:48:38;;;;;;;4.00;2.30;;;25.90;99.90;;;;;;5048495;28;20476;-74
2022/07/26 09:51:07;;;;;;;3.27;2.03;;;25.90;99.90;;;;;;5049431;28;20564;-74
2022/07/26 09:53:39;;;;;;;7.17;2.33;;;25.80;99.90;;;;;;5048389;28;20460;-74
2022/07/26 09:56:07;;;;;;;3.00;2.03;;;25.50;99.90;;;;;;5048497;28;20460;-75
2022/07/26 09:58:34;;;;;;;5.27;2.27;;;25.50;99.90;;;;;;5048282;28;20440;-74
2022/07/26 10:01:00;;;;;;;3.40;2.30;;;25.60;99.90;;;;;;5047774;28;20523;-75
2022/07/26 10:03:28;;;;;;;2.43;2.10;;;25.60;99.90;;;;;;5045333;28;20518;-75
2022/07/26 10:05:56;;;;;;;1.90;1.80;;;25.50;99.90;;;;;;5046468;28;20449;-75
2022/07/26 10:08:24;;;;;;;2.70;2.40;;;25.60;99.90;;;;;;5047089;28;20557;-75
2022/07/26 10:11:01;;;;;;;3.90;2.47;;;25.80;99.90;;;;;;5046743;28;20521;-75
2022/07/26 10:13:29;;;;;;;3.53;2.37;;;25.90;99.90;;;;;;5048971;28;20452;-75
2022/07/26 10:15:56;;;;;;;3.40;2.30;;;26.10;99.90;;;;;;5047028;28;20468;-74
2022/07/26 10:18:42;;;;;;;3.93;2.70;;;26.30;99.90;;;;;;5047687;28;20480;-76
2022/07/26 10:21:20;;;;;;;4.20;2.70;;;26.60;99.90;;;;;;5048060;28;20537;-75
2022/07/26 10:23:50;;;;;;;3.53;3.00;;;26.90;99.90;;;;;;5047679;28;20448;-76
2022/07/26 10:26:41;;;;;;;4.47;2.70;;;26.90;99.90;;;;;;5047789;28;20559;-76
2022/07/26 10:29:26;;;;;;;6.20;2.60;;;26.30;99.90;;;;;;5046884;28;20489;-74
2022/07/26 10:32:15;;;;;;;5.40;2.70;;;26.50;99.90;;;;;;5048015;28;20506;-74
2022/07/26 10:34:42;;;;;;;6.10;2.77;;;26.80;99.90;;;;;;5047353;28;20540;-75
2022/07/26 10:37:10;;;;;;;3.20;2.70;;;26.70;99.90;;;;;;5046423;28;20526;-75
2022/07/26 10:39:39;;;;;;;3.33;3.03;;;26.60;99.90;;;;;;5046720;28;20944;-75
2022/07/26 10:42:07;;;;;;;5.63;2.73;;;26.40;99.90;;;;;;5047313;28;20461;-75
2022/07/26 10:44:37;;;;;;;5.73;2.90;;;26.30;99.90;;;;;;5047734;28;20448;-75
2022/07/26 10:47:17;;;;;;;3.53;2.93;;;26.20;99.90;;;;;;5047486;28;20562;-75
2022/07/26 10:49:55;;;;;;;2.97;2.77;;;26.00;99.90;;;;;;5047328;28;20729;-74
2022/07/26 10:52:26;;;;;;;3.37;2.70;;;25.90;99.90;;;;;;5047778;28;20460;-75
2022/07/26 10:55:18;;;;;;;6.40;2.80;;;25.60;99.90;;;;;;5047251;28;20536;-75
2022/07/26 10:57:47;;;;;;;3.53;2.90;;;25.50;99.90;;;;;;5046628;28;21026;-75
2022/07/26 11:00:21;;;;;;;4.60;2.90;;;25.30;99.90;;;;;;5046846;28;21033;-75
2022/07/26 11:02:56;;;;;;;5.63;3.27;;;25.10;99.90;;;;;;5046357;28;20990;-74
2022/07/26 11:05:27;;;;;;;3.60;3.30;;;25.00;99.90;;;;;;5046604;28;20448;-75
2022/07/26 11:08:06;;;;;;;5.03;3.00;;;25.00;99.90;;;;;;5046762;28;20567;-76
2022/07/26 11:10:36;;;;;;;3.63;2.80;;;25.00;99.90;;;;;;5045285;28;20467;-75
2022/07/26 11:13:15;;;;;;;2.97;2.60;;;25.10;99.90;;;;;;5046190;28;20503;-75
2022/07/26 11:15:44;;;;;;;5.37;2.53;;;25.80;99.90;;;;;;5046211;28;20445;-73
2022/07/26 11:18:16;;;;;;;6.03;2.50;;;25.90;99.90;;;;;;5046701;28;20472;-74
2022/07/26 11:20:44;;;;;;;3.67;2.80;;;25.90;99.90;;;;;;5046493;28;20498;-74
2022/07/26 11:23:25;;;;;;;12.73;3.57;;;25.90;99.90;;;;;;5046882;28;20872;-75
2022/07/26 11:26:11;;;;;;;4.73;2.40;;;25.80;99.90;;;;;;5046936;28;20452;-74
2022/07/26 11:28:49;;;;;;;5.37;2.53;;;25.70;99.90;;;;;;5046763;28;21010;-73
2022/07/26 11:31:17;;;;;;;5.10;2.40;;;25.40;99.90;;;;;;5046119;28;20460;-73
2022/07/26 11:33:47;;;;;;;2.43;2.30;;;25.30;99.90;;;;;;5047310;28;20444;-73
2022/07/26 11:36:14;;;;;;;4.57;2.90;;;25.30;99.90;;;;;;5045668;28;20878;-72
2022/07/26 11:38:50;;;;;;;5.50;2.33;;;25.40;99.90;;;;;;5046731;28;20571;-73
2022/07/26 11:41:20;;;;;;;3.43;2.43;;;25.50;99.90;;;;;;5046530;28;20468;-73
2022/07/26 11:43:47;;;;;;;3.13;2.60;;;25.30;99.90;;;;;;5045446;28;20538;-73
2022/07/26 11:46:14;;;;;;;3.70;2.47;;;25.50;99.90;;;;;;5046640;28;20491;-73
2022/07/26 11:48:45;;;;;;;5.20;2.83;;;25.80;99.90;;;;;;5046606;28;21130;-74
2022/07/26 11:51:14;;;;;;;4.20;2.50;;;26.20;99.90;;;;;;5046067;28;21102;-73
2022/07/26 11:53:41;;;;;;;3.80;2.53;;;26.60;99.90;;;;;;5046862;28;20498;-74
2022/07/26 11:56:16;;;;;;;2.80;2.33;;;27.00;99.90;;;;;;5045594;28;20445;-73
2022/07/26 11:58:46;;;;;;;4.30;2.87;;;27.20;99.90;;;;;;5045452;28;20456;-73
2022/07/26 12:01:15;;;;;;;2.73;2.53;;;27.10;99.90;;;;;;5046023;28;20798;-74
2022/07/26 12:03:44;;;;;;;4.37;2.10;;;27.10;99.90;;;;;;5046745;28;20451;-74
2022/07/26 12:06:13;;;;;;;2.97;2.33;;;27.10;99.90;;;;;;5046786;28;20503;-74
2022/07/26 12:08:44;;;;;;;3.00;2.30;;;27.00;99.90;;;;;;5045769;28;20476;-74
2022/07/26 12:11:11;;;;;;;5.10;2.90;;;27.20;99.90;;;;;;5046809;28;20453;-75
2022/07/26 12:14:00;;;;;;;3.10;2.70;;;27.00;99.90;;;;;;5045430;28;20449;-75
2022/07/26 12:16:38;;;;;;;4.70;2.20;;;27.00;99.90;;;;;;5046471;28;20472;-75
2022/07/26 12:19:07;;;;;;;4.57;2.27;;;27.10;99.90;;;;;;5045963;28;20535;-75
2022/07/26 12:21:42;;;;;;;2.87;2.33;;;27.20;99.90;;;;;;5046444;28;20506;-74
2022/07/26 12:24:10;;;;;;;2.70;1.92;;;27.20;99.90;;;;;;5049385;28;20484;-76
2022/07/26 12:26:37;;;;;;;2.70;1.87;;;27.00;99.90;;;;;;5049847;28;20290;-76
2022/07/26 12:32:07;;;;;;;2.70;2.37;;;27.50;99.90;;;;;;5049693;28;20443;-75
2022/07/26 12:34:34;;;;;;;3.80;2.40;;;28.30;99.90;;;;;;5050502;28;20983;-76
2022/07/26 12:37:13;;;;;;;3.43;2.47;;;29.00;99.90;;;;;;5049712;28;20999;-76
2022/07/26 12:39:40;;;;;;;4.87;2.40;;;29.10;99.90;;;;;;5050640;28;20452;-76
2022/07/26 12:42:27;;;;;;;12.13;2.00;;;28.70;99.90;;;;;;5050183;28;20951;-76
2022/07/26 12:44:56;;;;;;;3.90;2.30;;;28.20;99.90;;;;;;5051587;28;22901;-75
2022/07/26 12:47:22;;;;;;;4.57;1.90;;;27.80;99.90;;;;;;5049341;28;20472;-75
2022/07/26 12:49:50;;;;;;;5.20;2.20;;;27.90;99.90;;;;;;5049108;28;20488;-75
2022/07/26 12:52:18;;;;;;;2.43;2.23;;;28.00;99.90;;;;;;5049907;28;20525;-75
2022/07/26 12:54:46;;;;;;;3.90;2.63;;;28.30;99.90;;;;;;5050273;28;20448;-75